createdAt,value
2018-07-23T00:02:19.419Z,11.23
2018-07-23T00:04:48.496Z,9.80
2018-07-23T00:07:17.444Z,10.37
2018-07-23T00:09:46.480Z,10.70
2018-07-23T00:12:15.926Z,9.27
2018-07-23T00:14:44.887Z,12.70
2018-07-23T00:17:13.837Z,8.73
2018-07-23T00:19:42.853Z,8.77
2018-07-23T00:22:11.921Z,8.60
2018-07-23T00:24:41.318Z,7.83
2018-07-23T00:27:10.442Z,8.53
2018-07-23T00:29:39.395Z,9.37
2018-07-23T00:32:08.710Z,9.43
2018-07-23T00:34:37.738Z,9.03
2018-07-23T00:37:06.834Z,11.00
2018-07-23T00:39:36.184Z,11.43
2018-07-23T00:42:05.553Z,11.10
2018-07-23T00:44:34.590Z,9.97
2018-07-23T00:47:03.644Z,9.33
2018-07-23T00:49:32.680Z,8.23
2018-07-23T00:52:01.696Z,9.23
2018-07-23T00:54:30.644Z,9.60
2018-07-23T00:56:59.639Z,10.07
2018-07-23T00:59:28.772Z,10.27
2018-07-23T01:01:57.844Z,10.90
2018-07-23T01:04:26.818Z,10.67
2018-07-23T01:06:55.847Z,10.43
2018-07-23T01:09:24.800Z,10.77
2018-07-23T01:11:53.844Z,9.17
2018-07-23T01:14:22.840Z,9.60
2018-07-23T01:16:51.824Z,9.10
2018-07-23T01:19:20.824Z,9.70
2018-07-23T01:21:49.816Z,10.13
2018-07-23T01:24:18.880Z,10.50
2018-07-23T01:26:48.027Z,11.00
2018-07-23T01:29:17.008Z,10.30
2018-07-23T01:31:46.024Z,11.17
2018-07-23T01:34:15.332Z,9.83
2018-07-23T01:36:44.318Z,10.07
2018-07-23T01:39:13.348Z,13.33
2018-07-23T01:41:42.368Z,10.77
2018-07-23T01:44:11.360Z,13.67
2018-07-23T01:46:40.430Z,10.50
2018-07-23T01:49:09.404Z,10.27
2018-07-23T01:51:40.678Z,10.97
2018-07-23T01:54:10.690Z,11.23
2018-07-23T01:56:39.826Z,10.70
2018-07-23T01:59:08.828Z,10.83
2018-07-23T02:01:37.862Z,11.23
2018-07-23T02:04:07.578Z,9.73
2018-07-23T02:06:36.892Z,10.60
2018-07-23T02:09:11.612Z,11.77
2018-07-23T02:11:41.233Z,10.87
2018-07-23T02:14:10.282Z,11.07
2018-07-23T02:16:39.280Z,10.77
2018-07-23T02:19:11.507Z,12.27
2018-07-23T02:21:40.560Z,10.70
2018-07-23T02:24:09.584Z,10.30
2018-07-23T02:26:38.488Z,10.43
2018-07-23T02:29:07.448Z,10.37
2018-07-23T02:31:36.324Z,11.93
2018-07-23T02:34:05.229Z,13.90
2018-07-23T02:36:34.146Z,13.53
2018-07-23T02:39:03.201Z,11.17
2018-07-23T02:41:32.119Z,12.13
2018-07-23T02:44:01.054Z,12.63
2018-07-23T02:46:29.957Z,12.90
2018-07-23T02:48:58.885Z,12.40
2018-07-23T02:51:27.780Z,16.00
2018-07-23T02:53:56.676Z,15.70
2018-07-23T02:56:25.584Z,15.07
2018-07-23T02:58:54.467Z,15.27
2018-07-23T03:01:23.403Z,15.40
2018-07-23T03:03:56.173Z,16.53
2018-07-23T03:06:26.341Z,15.43
2018-07-23T03:08:55.365Z,15.10
2018-07-23T03:11:24.767Z,15.37
2018-07-23T03:13:53.709Z,17.87
2018-07-23T03:16:22.638Z,18.50
2018-07-23T03:18:52.013Z,17.40
2018-07-23T03:21:20.916Z,15.70
2018-07-23T03:23:49.811Z,14.80
2018-07-23T03:26:19.247Z,14.90
2018-07-23T03:28:48.180Z,17.97
2018-07-23T03:31:17.416Z,15.80
2018-07-23T03:33:46.307Z,16.23
2018-07-23T03:36:15.243Z,15.07
2018-07-23T03:38:44.180Z,14.53
2018-07-23T03:41:13.080Z,17.67
2018-07-23T03:43:42.137Z,16.57
2018-07-23T03:46:11.067Z,18.07
2018-07-23T03:48:40.005Z,18.43
2018-07-23T03:51:08.911Z,18.90
2018-07-23T03:53:37.851Z,22.67
2018-07-23T03:56:07.018Z,21.13
2018-07-23T03:58:36.029Z,21.50
2018-07-23T04:01:04.985Z,19.30
2018-07-23T04:03:33.903Z,25.57
2018-07-23T04:06:02.897Z,21.13
2018-07-23T04:08:31.781Z,23.67
2018-07-23T04:11:00.695Z,23.50
2018-07-23T04:13:29.601Z,22.53
2018-07-23T04:15:58.512Z,25.17
2018-07-23T04:18:27.431Z,25.07
2018-07-23T04:20:56.370Z,26.03
2018-07-23T04:23:25.320Z,24.83
2018-07-23T04:25:54.232Z,25.83
2018-07-23T04:28:23.135Z,20.60
2018-07-23T04:30:52.431Z,22.60
2018-07-23T04:33:22.193Z,22.20
2018-07-23T04:35:51.183Z,23.27
2018-07-23T04:38:20.165Z,24.17
2018-07-23T04:40:49.144Z,26.67
2018-07-23T04:43:18.034Z,21.60
2018-07-23T04:45:46.931Z,19.53
2018-07-23T04:48:15.822Z,21.77
2018-07-23T04:50:44.815Z,22.87
2018-07-23T04:53:13.754Z,24.17
2018-07-23T04:55:42.695Z,23.20
2018-07-23T04:58:11.611Z,25.27
2018-07-23T05:00:40.546Z,21.07
2018-07-23T05:03:09.495Z,21.27
2018-07-23T05:05:38.377Z,19.73
2018-07-23T05:08:07.398Z,22.00
2018-07-23T05:10:36.294Z,22.03
2018-07-23T05:13:05.579Z,27.30
2018-07-23T05:15:34.504Z,22.53
2018-07-23T05:18:03.408Z,24.47
2018-07-23T05:20:32.343Z,24.43
2018-07-23T05:23:01.276Z,22.33
2018-07-23T05:25:31.440Z,26.13
2018-07-23T05:28:00.388Z,25.40
2018-07-23T05:30:29.296Z,25.97
2018-07-23T05:32:58.309Z,23.87
2018-07-23T05:35:27.270Z,27.37
2018-07-23T05:37:56.221Z,23.77
2018-07-23T05:40:25.151Z,23.60
2018-07-23T05:42:54.088Z,25.67
2018-07-23T05:45:22.999Z,23.70
2018-07-23T05:47:51.954Z,25.03
2018-07-23T05:50:20.906Z,27.00
2018-07-23T05:52:49.821Z,25.47
2018-07-23T05:55:18.745Z,24.27
2018-07-23T05:57:47.713Z,27.30
2018-07-23T06:00:16.641Z,26.77
2018-07-23T06:02:45.604Z,24.93
2018-07-23T06:05:14.580Z,24.00
2018-07-23T06:07:43.557Z,21.70
2018-07-23T06:10:12.569Z,23.93
2018-07-23T06:12:41.509Z,26.77
2018-07-23T06:15:11.723Z,25.50
2018-07-23T06:17:40.835Z,25.77
2018-07-23T06:20:10.163Z,29.73
2018-07-23T06:22:39.084Z,28.47
2018-07-23T06:25:09.384Z,27.67
2018-07-23T06:27:38.319Z,26.67
2018-07-23T06:30:09.561Z,28.67
2018-07-23T06:32:38.623Z,29.57
2018-07-23T06:35:07.635Z,32.57
2018-07-23T06:37:36.716Z,29.40
2018-07-23T06:40:09.245Z,30.60
2018-07-23T06:42:38.159Z,31.30
2018-07-23T06:45:07.124Z,30.17
2018-07-23T06:47:36.076Z,27.53
2018-07-23T06:50:05.799Z,27.67
2018-07-23T06:52:34.761Z,29.80
2018-07-23T06:55:03.725Z,27.50
2018-07-23T06:57:32.706Z,31.57
2018-07-23T07:00:01.645Z,32.67
2018-07-23T07:02:30.599Z,26.67
2018-07-23T07:04:59.511Z,24.80
2018-07-23T07:07:28.469Z,27.80
2018-07-23T07:09:57.965Z,31.00
2018-07-23T07:12:26.890Z,26.10
2018-07-23T07:14:55.871Z,27.50
2018-07-23T07:17:24.801Z,27.20
2018-07-23T07:19:53.804Z,27.10
2018-07-23T07:22:22.849Z,23.33
2018-07-23T07:24:51.933Z,25.17
2018-07-23T07:27:21.369Z,26.63
2018-07-23T07:29:50.273Z,25.00
2018-07-23T07:32:19.223Z,26.77
2018-07-23T07:34:48.248Z,24.03
2018-07-23T07:37:17.248Z,26.50
2018-07-23T07:39:46.177Z,24.57
2018-07-23T07:42:15.108Z,21.33
2018-07-23T07:44:44.109Z,27.90
2018-07-23T07:47:13.065Z,27.17
2018-07-23T07:49:42.035Z,24.60
2018-07-23T07:52:11.019Z,28.77
2018-07-23T07:54:40.068Z,25.03
2018-07-23T07:57:08.999Z,24.37
2018-07-23T07:59:37.921Z,26.30
2018-07-23T08:02:06.918Z,31.63
2018-07-23T08:04:36.093Z,23.67
2018-07-23T08:07:05.067Z,26.50
2018-07-23T08:09:33.988Z,25.03
2018-07-23T08:12:03.016Z,23.40
2018-07-23T08:14:32.574Z,23.10
2018-07-23T08:17:01.626Z,21.47
2018-07-23T08:19:30.540Z,19.97
2018-07-23T08:21:59.451Z,23.50
2018-07-23T08:24:28.380Z,22.30
2018-07-23T08:26:57.334Z,20.53
2018-07-23T08:29:26.348Z,20.87
2018-07-23T08:31:55.392Z,17.03
2018-07-23T08:34:24.753Z,18.23
2018-07-23T08:36:53.752Z,19.20
2018-07-23T08:39:22.694Z,20.60
2018-07-23T08:41:52.478Z,16.57
2018-07-23T08:44:21.433Z,20.57
2018-07-23T08:46:50.344Z,20.73
2018-07-23T08:49:24.714Z,24.50
2018-07-23T08:51:59.336Z,16.80
2018-07-23T08:54:28.266Z,16.47
2018-07-23T08:56:57.220Z,15.17
2018-07-23T08:59:26.147Z,18.10
2018-07-23T09:01:55.060Z,17.20
2018-07-23T09:04:24.120Z,16.60
2018-07-23T09:06:53.125Z,12.73
2018-07-23T09:09:22.112Z,10.63
2018-07-23T09:11:51.056Z,9.93
2018-07-23T09:14:20.353Z,9.00
2018-07-23T09:16:49.250Z,12.93
2018-07-23T09:19:18.142Z,11.63
2018-07-23T09:21:47.082Z,9.80
2018-07-23T09:24:16.029Z,11.83
2018-07-23T09:26:45.678Z,7.57
2018-07-23T09:29:14.581Z,7.57
2018-07-23T09:31:43.544Z,7.80
2018-07-23T09:34:12.442Z,6.33
2018-07-23T09:36:41.352Z,9.17
2018-07-23T09:39:10.785Z,9.23
2018-07-23T09:41:39.814Z,7.10
2018-07-23T09:44:08.794Z,5.83
2018-07-23T09:46:37.722Z,8.87
2018-07-23T09:49:06.660Z,6.63
2018-07-23T09:51:35.569Z,9.77
2018-07-23T09:54:04.597Z,9.23
2018-07-23T09:56:33.508Z,6.30
2018-07-23T09:59:02.438Z,7.70
2018-07-23T10:01:31.370Z,6.83
2018-07-23T10:04:00.376Z,5.50
2018-07-23T10:06:29.332Z,8.17
2018-07-23T10:08:58.301Z,6.63
2018-07-23T10:11:27.217Z,5.70
2018-07-23T10:13:56.111Z,7.33
2018-07-23T10:16:25.093Z,8.13
2018-07-23T10:18:53.987Z,6.77
2018-07-23T10:21:22.953Z,7.37
2018-07-23T10:23:51.984Z,8.93
2018-07-23T10:26:20.891Z,8.77
2018-07-23T10:28:49.794Z,9.03
2018-07-23T10:31:18.812Z,7.23
2018-07-23T10:33:49.192Z,8.53
2018-07-23T10:36:18.097Z,9.97
2018-07-23T10:38:47.020Z,10.67
2018-07-23T10:41:16.412Z,9.80
2018-07-23T10:43:45.299Z,11.20
2018-07-23T10:46:14.230Z,9.23
2018-07-23T10:48:43.205Z,10.63
2018-07-23T10:51:12.137Z,11.73
2018-07-23T10:53:41.136Z,8.77
2018-07-23T10:56:10.056Z,7.50
2018-07-23T10:58:39.016Z,8.47
2018-07-23T11:01:07.981Z,9.03
2018-07-23T11:03:36.886Z,6.20
2018-07-23T11:06:05.950Z,5.30
2018-07-23T11:08:34.942Z,5.97
2018-07-23T11:11:03.912Z,4.93
2018-07-23T11:13:33.136Z,6.00
2018-07-23T11:16:02.066Z,5.80
2018-07-23T11:18:30.988Z,7.80
2018-07-23T11:20:59.894Z,6.60
2018-07-23T11:23:28.814Z,5.93
2018-07-23T11:25:57.729Z,7.50
2018-07-23T11:28:29.668Z,4.93
2018-07-23T11:30:58.660Z,5.20
2018-07-23T11:33:27.563Z,5.33
2018-07-23T11:35:56.549Z,7.83
2018-07-23T11:38:25.490Z,5.30
2018-07-23T11:40:56.633Z,4.53
2018-07-23T11:43:25.574Z,4.90
2018-07-23T11:45:54.493Z,5.73
2018-07-23T11:48:23.415Z,8.70
2018-07-23T11:50:52.467Z,5.10
2018-07-23T11:53:22.637Z,5.87
2018-07-23T11:55:51.593Z,5.50
2018-07-23T11:58:20.580Z,5.93
2018-07-23T12:00:50.109Z,5.93
2018-07-23T12:03:19.229Z,6.23
2018-07-23T12:05:48.155Z,8.30
2018-07-23T12:08:17.152Z,5.63
2018-07-23T12:10:46.149Z,6.70
2018-07-23T12:13:15.239Z,5.90
2018-07-23T12:15:44.499Z,5.37
2018-07-23T12:18:13.508Z,7.37
2018-07-23T12:20:42.521Z,5.37
2018-07-23T12:23:11.906Z,5.43
2018-07-23T12:25:41.868Z,5.83
2018-07-23T12:28:11.831Z,5.83
2018-07-23T12:30:41.523Z,5.77
2018-07-23T12:33:10.719Z,5.43
2018-07-23T12:35:39.639Z,5.80
2018-07-23T12:38:08.547Z,5.77
2018-07-23T12:40:37.499Z,5.37
2018-07-23T12:43:06.557Z,6.37
2018-07-23T12:45:35.545Z,6.03
2018-07-23T12:48:04.487Z,4.10
2018-07-23T12:50:33.431Z,4.40
2018-07-23T12:53:02.359Z,5.07
2018-07-23T12:55:31.336Z,5.53
2018-07-23T12:58:00.215Z,5.90
2018-07-23T13:00:29.222Z,5.60
2018-07-23T13:02:58.135Z,6.13
2018-07-23T13:05:31.837Z,7.47
2018-07-23T13:08:01.899Z,5.47
2018-07-23T13:10:30.811Z,5.73
2018-07-23T13:12:59.932Z,5.97
2018-07-23T13:15:28.893Z,6.47
2018-07-23T13:17:58.812Z,5.63
2018-07-23T13:20:27.767Z,5.97
2018-07-23T13:22:56.683Z,7.50
2018-07-23T13:25:25.616Z,5.53
2018-07-23T13:27:54.654Z,9.43
2018-07-23T13:30:23.583Z,6.73
2018-07-23T13:32:52.747Z,6.80
2018-07-23T13:35:21.640Z,7.97
2018-07-23T13:37:50.598Z,6.03
2018-07-23T13:40:19.616Z,6.80
2018-07-23T13:42:48.505Z,7.13
2018-07-23T13:45:17.481Z,7.43
2018-07-23T13:47:46.513Z,7.10
2018-07-23T13:50:15.505Z,5.73
2018-07-23T13:52:45.043Z,6.33
2018-07-23T13:55:14.002Z,6.13
2018-07-23T13:57:43.032Z,6.93
2018-07-23T14:00:11.945Z,4.83
2018-07-23T14:02:40.907Z,5.90
2018-07-23T14:05:09.868Z,6.80
2018-07-23T14:07:38.807Z,5.33
2018-07-23T14:10:07.766Z,7.50
2018-07-23T14:12:37.627Z,4.83
2018-07-23T14:15:06.578Z,5.13
2018-07-23T14:17:35.417Z,6.00
2018-07-23T14:20:04.463Z,6.50
2018-07-23T14:22:33.369Z,6.07
2018-07-23T14:25:02.327Z,6.73
2018-07-23T14:27:31.195Z,9.00
2018-07-23T14:30:00.120Z,7.53
2018-07-23T14:32:29.062Z,5.97
2018-07-23T14:34:57.958Z,5.93
2018-07-23T14:37:26.904Z,5.67
2018-07-23T14:39:55.790Z,5.93
2018-07-23T14:42:24.770Z,6.70
2018-07-23T14:44:53.662Z,7.00
2018-07-23T14:47:22.577Z,6.80
2018-07-23T14:49:51.611Z,5.60
2018-07-23T14:52:20.483Z,7.03
2018-07-23T14:54:49.426Z,7.80
2018-07-23T14:57:18.337Z,7.17
2018-07-23T14:59:47.246Z,6.73
2018-07-23T15:02:16.208Z,5.90
2018-07-23T15:04:45.184Z,6.20
2018-07-23T15:07:14.093Z,5.60
2018-07-23T15:09:43.879Z,6.87
2018-07-23T15:12:12.868Z,5.70
2018-07-23T15:14:41.780Z,6.50
2018-07-23T15:17:10.682Z,7.40
2018-07-23T15:19:39.621Z,8.27
2018-07-23T15:22:09.038Z,6.13
2018-07-23T15:24:37.941Z,6.83
2018-07-23T15:27:06.916Z,8.30
2018-07-23T15:29:35.833Z,10.13
2018-07-23T15:32:05.507Z,7.80
2018-07-23T15:34:34.411Z,10.10
2018-07-23T15:37:03.333Z,7.07
2018-07-23T15:39:32.243Z,8.17
2018-07-23T15:42:01.429Z,8.40
2018-07-23T15:44:30.524Z,9.30
2018-07-23T15:46:59.267Z,9.40
2018-07-23T15:49:28.151Z,7.20
2018-07-23T15:51:57.181Z,7.90
2018-07-23T15:54:26.059Z,6.93
2018-07-23T15:56:55.001Z,6.73
2018-07-23T15:59:23.965Z,6.93
2018-07-23T16:01:53.893Z,6.77
2018-07-23T16:04:22.807Z,7.03
2018-07-23T16:06:51.679Z,7.63
2018-07-23T16:09:20.704Z,7.37
2018-07-23T16:11:49.588Z,6.60
2018-07-23T16:14:18.489Z,8.10
2018-07-23T16:16:47.403Z,7.87
2018-07-23T16:19:16.875Z,6.23
2018-07-23T16:21:45.959Z,6.50
2018-07-23T16:24:14.853Z,5.60
2018-07-23T16:26:43.795Z,7.27
2018-07-23T16:29:14.463Z,5.80
2018-07-23T16:31:43.340Z,11.30
2018-07-23T16:34:12.286Z,5.73
2018-07-23T16:36:41.186Z,7.20
2018-07-23T16:39:12.078Z,7.20
2018-07-23T16:41:41.292Z,5.37
2018-07-23T16:44:10.396Z,4.90
2018-07-23T16:46:39.380Z,5.00
2018-07-23T16:49:08.255Z,5.80
2018-07-23T16:51:37.192Z,6.27
2018-07-23T16:54:06.184Z,4.80
2018-07-23T16:56:35.012Z,7.80
2018-07-23T16:59:04.013Z,4.73
2018-07-23T17:01:32.911Z,6.70
2018-07-23T17:04:01.846Z,4.50
2018-07-23T17:06:30.780Z,5.17
2018-07-23T17:08:59.775Z,5.00
2018-07-23T17:11:28.763Z,4.57
2018-07-23T17:13:57.661Z,6.10
2018-07-23T17:16:26.588Z,5.50
2018-07-23T17:18:55.543Z,6.00
2018-07-23T17:21:24.484Z,5.17
2018-07-23T17:23:53.426Z,7.30
2018-07-23T17:26:22.326Z,5.20
2018-07-23T17:28:51.337Z,5.30
2018-07-23T17:31:20.213Z,4.87
2018-07-23T17:33:55.664Z,7.70
2018-07-23T17:36:24.626Z,7.27
2018-07-23T17:38:53.533Z,4.50
2018-07-23T17:41:22.558Z,5.90
2018-07-23T17:43:51.520Z,5.67
2018-07-23T17:46:20.439Z,4.23
2018-07-23T17:48:49.718Z,6.17
2018-07-23T17:51:18.612Z,5.23
2018-07-23T17:53:47.698Z,4.90
2018-07-23T17:56:16.602Z,5.07
2018-07-23T17:58:45.544Z,4.93
2018-07-23T18:01:14.443Z,5.17
2018-07-23T18:03:43.332Z,5.23
2018-07-23T18:06:12.261Z,5.20
2018-07-23T18:08:41.189Z,5.17
2018-07-23T18:11:10.187Z,5.50
2018-07-23T18:13:39.154Z,4.70
2018-07-23T18:16:08.425Z,4.97
2018-07-23T18:18:37.372Z,4.53
2018-07-23T18:21:06.255Z,5.70
2018-07-23T18:23:35.198Z,4.90
2018-07-23T18:26:04.133Z,5.90
2018-07-23T18:28:33.148Z,5.03
2018-07-23T18:31:02.175Z,4.70
2018-07-23T18:33:31.113Z,4.70
2018-07-23T18:36:00.807Z,5.17
2018-07-23T18:38:29.881Z,4.90
2018-07-23T18:40:58.695Z,4.80
2018-07-23T18:43:27.791Z,4.70
2018-07-23T18:45:56.795Z,4.17
2018-07-23T18:49:37.320Z,5.57
2018-07-23T18:52:06.321Z,5.27
2018-07-23T18:54:35.675Z,6.47
2018-07-23T18:57:06.553Z,6.67
2018-07-23T18:59:35.578Z,4.90
2018-07-23T19:02:06.921Z,4.93
2018-07-23T19:04:35.963Z,7.03
2018-07-23T19:07:05.340Z,4.47
2018-07-23T19:09:34.315Z,5.03
2018-07-23T19:12:03.303Z,5.70
2018-07-23T19:14:32.203Z,8.20
2018-07-23T19:17:02.155Z,4.70
2018-07-23T19:19:31.100Z,6.03
2018-07-23T19:22:00.160Z,4.50
2018-07-23T19:24:29.115Z,4.93
2018-07-23T19:26:58.019Z,4.47
2018-07-23T19:29:26.995Z,7.20
2018-07-23T19:31:56.024Z,4.50
2018-07-23T19:34:24.941Z,6.73
2018-07-23T19:36:53.923Z,8.27
2018-07-23T19:39:23.112Z,4.67
2018-07-23T19:41:52.091Z,6.43
2018-07-23T19:44:21.009Z,4.67
2018-07-23T19:46:49.945Z,7.50
2018-07-23T19:49:19.003Z,6.53
2018-07-23T19:51:47.967Z,6.63
2018-07-23T19:54:16.835Z,8.47
2018-07-23T19:56:45.728Z,4.70
2018-07-23T19:59:14.664Z,6.50
2018-07-23T20:01:43.581Z,6.10
2018-07-23T20:04:12.517Z,5.10
2018-07-23T20:06:41.425Z,6.27
2018-07-23T20:09:11.243Z,7.53
2018-07-23T20:11:41.059Z,4.87
2018-07-23T20:14:09.968Z,5.37
2018-07-23T20:16:38.828Z,6.40
2018-07-23T20:19:07.748Z,5.43
2018-07-23T20:21:36.667Z,5.77
2018-07-23T20:24:05.663Z,9.07
2018-07-23T20:26:34.567Z,7.53
2018-07-23T20:29:03.567Z,5.73
2018-07-23T20:31:32.436Z,5.00
2018-07-23T20:34:01.401Z,6.67
2018-07-23T20:36:30.287Z,5.70
2018-07-23T20:38:59.249Z,5.43
2018-07-23T20:41:28.121Z,6.20
2018-07-23T20:43:57.159Z,7.73
2018-07-23T20:46:26.069Z,6.03
2018-07-23T20:48:55.027Z,5.90
2018-07-23T20:51:24.057Z,8.97
2018-07-23T20:53:53.173Z,5.80
2018-07-23T20:56:22.124Z,7.10
2018-07-23T20:58:51.085Z,7.20
2018-07-23T21:01:20.008Z,7.93
2018-07-23T21:03:49.005Z,6.03
2018-07-23T21:06:17.895Z,6.77
2018-07-23T21:08:46.897Z,5.73
2018-07-23T21:11:15.922Z,5.17
2018-07-23T21:13:45.122Z,7.40
2018-07-23T21:16:14.056Z,5.17
2018-07-23T21:18:43.020Z,5.10
2018-07-23T21:21:11.929Z,7.60
2018-07-23T21:23:40.877Z,7.07
2018-07-23T21:26:09.907Z,7.53
2018-07-23T21:28:38.865Z,5.23
2018-07-23T21:31:07.935Z,5.43
2018-07-23T21:33:36.866Z,5.13
2018-07-23T21:36:05.840Z,5.87
2018-07-23T21:38:34.836Z,5.00
2018-07-23T21:41:03.756Z,5.70
2018-07-23T21:43:32.706Z,4.80
2018-07-23T21:46:01.607Z,5.97
2018-07-23T21:48:31.321Z,5.30
2018-07-23T21:51:00.225Z,5.80
2018-07-23T21:53:29.315Z,6.40
2018-07-23T21:55:58.187Z,5.40
2018-07-23T21:58:27.098Z,5.33
2018-07-23T22:00:56.074Z,5.23
2018-07-23T22:03:24.937Z,5.73
2018-07-23T22:05:53.964Z,10.47
2018-07-23T22:08:22.967Z,5.50
2018-07-23T22:10:52.749Z,5.47
2018-07-23T22:13:21.663Z,5.67
2018-07-23T22:15:50.583Z,5.43
2018-07-23T22:18:19.468Z,6.20
2018-07-23T22:20:48.441Z,5.43
2018-07-23T22:23:17.433Z,5.23
2018-07-23T22:25:46.416Z,5.73
2018-07-23T22:28:15.310Z,5.37
2018-07-23T22:30:44.256Z,5.83
2018-07-23T22:33:13.176Z,5.50
2018-07-23T22:35:42.353Z,5.23
2018-07-23T22:38:11.250Z,5.77
2018-07-23T22:40:40.173Z,6.10
2018-07-23T22:43:09.165Z,7.03
2018-07-23T22:45:38.165Z,7.00
2018-07-23T22:48:07.300Z,6.33
2018-07-23T22:50:36.198Z,7.63
2018-07-23T22:53:05.253Z,6.87
2018-07-23T22:55:34.729Z,6.83
2018-07-23T22:58:03.620Z,10.43
2018-07-23T23:00:33.606Z,6.73
2018-07-23T23:03:02.552Z,6.93
2018-07-23T23:05:31.776Z,5.73
2018-07-23T23:08:00.664Z,5.93
2018-07-23T23:10:29.555Z,5.67
2018-07-23T23:12:58.507Z,6.40
2018-07-23T23:15:28.246Z,6.50
2018-07-23T23:17:57.155Z,8.37
2018-07-23T23:20:26.142Z,6.20
2018-07-23T23:22:56.042Z,6.27
2018-07-23T23:25:24.991Z,5.50
2018-07-23T23:27:53.856Z,6.90
2018-07-23T23:30:22.809Z,6.93
2018-07-23T23:32:51.805Z,7.20
2018-07-23T23:35:21.804Z,5.53
2018-07-23T23:37:50.718Z,6.47
2018-07-23T23:40:19.621Z,5.47
2018-07-23T23:42:48.588Z,5.80
2018-07-23T23:45:17.465Z,7.10
2018-07-23T23:47:46.383Z,6.47
2018-07-23T23:50:15.272Z,5.90
2018-07-23T23:52:44.190Z,7.73
2018-07-23T23:55:13.284Z,5.67
2018-07-23T23:57:42.230Z,7.13
